createdAt,value
2018-07-06T00:01:02.766Z,0
2018-07-06T00:02:10.829Z,0
2018-07-06T00:03:18.884Z,0
2018-07-06T00:04:26.980Z,0
2018-07-06T00:05:35.021Z,0
2018-07-06T00:06:43.092Z,0
2018-07-06T00:07:51.161Z,0
2018-07-06T00:08:59.226Z,0
2018-07-06T00:10:07.291Z,0
2018-07-06T00:11:15.355Z,0
2018-07-06T00:12:23.424Z,0
2018-07-06T00:13:31.488Z,0
2018-07-06T00:14:39.535Z,0
2018-07-06T00:15:47.614Z,0
2018-07-06T00:16:55.675Z,0
2018-07-06T00:18:03.722Z,0
2018-07-06T00:19:11.808Z,0
2018-07-06T00:20:19.903Z,0
2018-07-06T00:21:27.944Z,0
2018-07-06T00:22:36.024Z,0
2018-07-06T00:23:44.058Z,0
2018-07-06T00:24:52.140Z,0
2018-07-06T00:26:00.199Z,0
2018-07-06T00:27:08.272Z,0
2018-07-06T00:28:16.343Z,0
2018-07-06T00:29:24.402Z,0
2018-07-06T00:30:32.477Z,0
2018-07-06T00:31:40.544Z,0
2018-07-06T00:32:48.600Z,0
2018-07-06T00:33:56.673Z,0
2018-07-06T00:35:04.741Z,0
2018-07-06T00:36:12.812Z,0
2018-07-06T00:37:20.880Z,0
2018-07-06T00:38:28.946Z,0
2018-07-06T00:39:37.009Z,0
2018-07-06T00:40:45.074Z,0
2018-07-06T00:41:53.140Z,0
2018-07-06T00:43:01.206Z,0
2018-07-06T00:44:09.260Z,0
2018-07-06T00:45:17.350Z,0
2018-07-06T00:46:25.389Z,0
2018-07-06T00:47:33.449Z,0
2018-07-06T00:48:41.526Z,0
2018-07-06T00:49:49.602Z,0
2018-07-06T00:50:57.644Z,0
2018-07-06T00:52:05.720Z,0
2018-07-06T00:53:13.766Z,0
2018-07-06T00:54:22.912Z,0
2018-07-06T00:55:29.929Z,0
2018-07-06T00:56:37.989Z,0
2018-07-06T00:57:46.311Z,0
2018-07-06T00:58:54.103Z,0
2018-07-06T01:00:02.203Z,0
2018-07-06T01:01:10.260Z,0
2018-07-06T01:02:18.322Z,0
2018-07-06T01:03:26.393Z,0
2018-07-06T01:04:34.450Z,0
2018-07-06T01:05:42.514Z,0
2018-07-06T01:06:50.593Z,0
2018-07-06T01:07:58.660Z,0
2018-07-06T01:09:06.726Z,0
2018-07-06T01:10:14.880Z,0
2018-07-06T01:11:22.852Z,0
2018-07-06T01:12:30.926Z,0
2018-07-06T01:13:38.988Z,0
2018-07-06T01:14:47.071Z,0
2018-07-06T01:15:55.126Z,0
2018-07-06T01:17:03.201Z,0
2018-07-06T01:18:11.257Z,0
2018-07-06T01:19:19.318Z,0
2018-07-06T01:20:27.392Z,0
2018-07-06T01:21:35.488Z,0
2018-07-06T01:22:43.517Z,0
2018-07-06T01:23:51.610Z,0
2018-07-06T01:24:59.679Z,0
2018-07-06T01:26:07.739Z,0
2018-07-06T01:27:15.799Z,0
2018-07-06T01:28:23.843Z,0
2018-07-06T01:29:31.942Z,0
2018-07-06T01:30:40.006Z,0
2018-07-06T01:31:48.060Z,0
2018-07-06T01:32:56.131Z,0
2018-07-06T01:34:04.162Z,0
2018-07-06T01:35:12.273Z,0
2018-07-06T01:36:20.346Z,0
2018-07-06T01:37:28.391Z,0
2018-07-06T01:38:36.465Z,0
2018-07-06T01:39:44.525Z,0
2018-07-06T01:40:52.582Z,0
2018-07-06T01:42:00.658Z,0
2018-07-06T01:43:08.720Z,0
2018-07-06T01:44:16.801Z,0
2018-07-06T01:45:24.850Z,0
2018-07-06T01:46:32.919Z,0
2018-07-06T01:47:40.980Z,0
2018-07-06T01:48:49.061Z,0
2018-07-06T01:49:57.114Z,0
2018-07-06T01:51:05.188Z,0
2018-07-06T01:52:13.288Z,0
2018-07-06T01:53:21.323Z,0
2018-07-06T01:54:29.392Z,0
2018-07-06T01:55:37.445Z,0
2018-07-06T01:56:45.517Z,0
2018-07-06T01:57:53.555Z,0
2018-07-06T01:59:01.648Z,0
2018-07-06T02:00:09.715Z,0
2018-07-06T02:01:17.778Z,0
2018-07-06T02:02:25.857Z,0
2018-07-06T02:03:33.882Z,0
2018-07-06T02:04:41.970Z,0
2018-07-06T02:05:50.049Z,0
2018-07-06T02:06:58.116Z,0
2018-07-06T02:08:06.179Z,0
2018-07-06T02:09:14.224Z,0
2018-07-06T02:10:22.308Z,0
2018-07-06T02:11:30.413Z,0
2018-07-06T02:12:38.436Z,0
2018-07-06T02:13:46.503Z,0
2018-07-06T02:14:54.568Z,0
2018-07-06T02:16:02.640Z,0
2018-07-06T02:17:10.715Z,0
2018-07-06T02:18:18.759Z,0
2018-07-06T02:19:26.837Z,0
2018-07-06T02:20:34.897Z,0
2018-07-06T02:21:42.965Z,0
2018-07-06T02:22:51.031Z,0
2018-07-06T02:23:59.099Z,0
2018-07-06T02:25:07.171Z,0
2018-07-06T02:26:15.240Z,0
2018-07-06T02:27:23.287Z,0
2018-07-06T02:28:31.356Z,0
2018-07-06T02:29:39.441Z,0
2018-07-06T02:30:47.485Z,0
2018-07-06T02:31:55.558Z,0
2018-07-06T02:33:03.594Z,0
2018-07-06T02:34:11.728Z,0
2018-07-06T02:35:19.758Z,0
2018-07-06T02:36:27.819Z,0
2018-07-06T02:37:35.871Z,0
2018-07-06T02:38:43.928Z,0
2018-07-06T02:39:52.019Z,0
2018-07-06T02:41:00.089Z,0
2018-07-06T02:42:08.156Z,0
2018-07-06T02:43:16.219Z,0
2018-07-06T02:44:24.255Z,0
2018-07-06T02:45:32.352Z,0
2018-07-06T02:46:40.419Z,0
2018-07-06T02:47:48.478Z,0
2018-07-06T02:48:56.541Z,0
2018-07-06T02:50:04.625Z,0
2018-07-06T02:51:12.681Z,0
2018-07-06T02:52:20.736Z,0
2018-07-06T02:53:28.811Z,0
2018-07-06T02:54:36.883Z,0
2018-07-06T02:55:44.944Z,0
2018-07-06T02:56:53.023Z,0
2018-07-06T02:58:01.094Z,0
2018-07-06T02:59:09.138Z,0
2018-07-06T03:00:17.229Z,0
2018-07-06T03:01:25.278Z,0
2018-07-06T03:02:33.340Z,0
2018-07-06T03:03:41.400Z,0
2018-07-06T03:04:49.478Z,0
2018-07-06T03:05:57.548Z,0
2018-07-06T03:07:05.613Z,0
2018-07-06T03:08:13.648Z,0
2018-07-06T03:09:21.742Z,0
2018-07-06T03:10:29.806Z,0
2018-07-06T03:11:37.868Z,0
2018-07-06T03:12:45.939Z,0
2018-07-06T03:13:53.971Z,0
2018-07-06T03:15:02.067Z,0
2018-07-06T03:16:10.179Z,0
2018-07-06T03:17:18.199Z,0
2018-07-06T03:18:26.266Z,0
2018-07-06T03:19:34.323Z,0
2018-07-06T03:20:42.399Z,0
2018-07-06T03:21:50.492Z,0
2018-07-06T03:22:58.543Z,0
2018-07-06T03:24:06.637Z,0
2018-07-06T03:25:14.666Z,0
2018-07-06T03:26:22.732Z,0
2018-07-06T03:27:30.795Z,0
2018-07-06T03:28:39.167Z,0
2018-07-06T03:29:46.952Z,0
2018-07-06T03:30:55.006Z,0
2018-07-06T03:32:03.073Z,0
2018-07-06T03:33:11.141Z,0
2018-07-06T03:34:19.199Z,0
2018-07-06T03:35:27.274Z,0
2018-07-06T03:36:35.332Z,0
2018-07-06T03:37:43.391Z,0
2018-07-06T03:38:51.471Z,0
2018-07-06T03:39:59.525Z,0
2018-07-06T03:41:07.595Z,0
2018-07-06T03:42:15.661Z,0
2018-07-06T03:43:23.702Z,0
2018-07-06T03:44:31.799Z,0
2018-07-06T03:45:39.864Z,0
2018-07-06T03:46:47.942Z,5
2018-07-06T03:47:55.990Z,5
2018-07-06T03:49:04.037Z,5
2018-07-06T03:50:12.144Z,5
2018-07-06T03:51:20.194Z,5
2018-07-06T03:52:28.276Z,5
2018-07-06T03:53:36.328Z,5
2018-07-06T03:54:44.384Z,5
2018-07-06T03:55:52.480Z,5
2018-07-06T03:57:00.532Z,5
2018-07-06T03:58:08.807Z,10
2018-07-06T03:59:16.872Z,10
2018-07-06T04:00:24.951Z,10
2018-07-06T04:01:33.007Z,10
2018-07-06T04:02:41.076Z,10
2018-07-06T04:03:49.132Z,15
2018-07-06T04:04:57.209Z,15
2018-07-06T04:06:05.271Z,15
2018-07-06T04:07:13.329Z,15
2018-07-06T04:08:21.384Z,15
2018-07-06T04:09:29.478Z,15
2018-07-06T04:10:37.541Z,15
2018-07-06T04:11:45.601Z,15
2018-07-06T04:12:53.652Z,15
2018-07-06T04:14:01.750Z,15
2018-07-06T04:15:09.833Z,15
2018-07-06T04:16:17.861Z,15
2018-07-06T04:17:25.935Z,15
2018-07-06T04:18:33.985Z,20
2018-07-06T04:19:42.062Z,20
2018-07-06T04:20:50.136Z,20
2018-07-06T04:21:58.201Z,20
2018-07-06T04:23:06.276Z,20
2018-07-06T04:24:14.321Z,20
2018-07-06T04:25:22.419Z,20
2018-07-06T04:26:30.519Z,25
2018-07-06T04:27:38.553Z,25
2018-07-06T04:28:46.613Z,20
2018-07-06T04:29:54.679Z,20
2018-07-06T04:31:02.742Z,20
2018-07-06T04:32:10.806Z,20
2018-07-06T04:33:18.871Z,20
2018-07-06T04:34:27.222Z,20
2018-07-06T04:35:35.149Z,20
2018-07-06T04:36:43.091Z,20
2018-07-06T04:37:51.146Z,25
2018-07-06T04:38:59.201Z,25
2018-07-06T04:40:07.271Z,30
2018-07-06T04:41:15.398Z,30
2018-07-06T04:42:23.396Z,35
2018-07-06T04:43:31.459Z,40
2018-07-06T04:44:39.540Z,40
2018-07-06T04:45:47.604Z,40
2018-07-06T04:46:55.670Z,45
2018-07-06T04:48:03.712Z,45
2018-07-06T04:49:11.921Z,45
2018-07-06T04:50:19.921Z,40
2018-07-06T04:51:27.956Z,40
2018-07-06T04:52:36.054Z,45
2018-07-06T04:53:44.089Z,50
2018-07-06T04:54:52.182Z,55
2018-07-06T04:56:00.219Z,60
2018-07-06T04:57:08.288Z,65
2018-07-06T04:58:16.342Z,65
2018-07-06T04:59:24.411Z,70
2018-07-06T05:00:32.484Z,75
2018-07-06T05:01:40.552Z,75
2018-07-06T05:02:48.641Z,80
2018-07-06T05:03:56.713Z,85
2018-07-06T05:05:04.762Z,95
2018-07-06T05:06:13.783Z,100
2018-07-06T05:07:20.898Z,90
2018-07-06T05:08:29.082Z,80
2018-07-06T05:09:37.020Z,80
2018-07-06T05:10:45.094Z,80
2018-07-06T05:11:53.541Z,85
2018-07-06T05:13:01.690Z,95
2018-07-06T05:14:09.424Z,100
2018-07-06T05:15:17.784Z,90
2018-07-06T05:16:25.814Z,105
2018-07-06T05:17:33.782Z,125
2018-07-06T05:18:41.564Z,125
2018-07-06T05:19:49.633Z,110
2018-07-06T05:20:57.700Z,125
2018-07-06T05:22:05.770Z,110
2018-07-06T05:23:13.818Z,130
2018-07-06T05:24:30.801Z,140
2018-07-06T05:25:38.860Z,135
2018-07-06T05:26:46.943Z,130
2018-07-06T05:27:55.010Z,120
2018-07-06T05:29:03.061Z,135
2018-07-06T05:30:11.142Z,135
2018-07-06T05:31:19.222Z,125
2018-07-06T05:32:27.268Z,130
2018-07-06T05:33:35.332Z,115
2018-07-06T05:34:43.445Z,125
2018-07-06T05:35:51.460Z,130
2018-07-06T05:36:59.553Z,130
2018-07-06T05:38:07.606Z,140
2018-07-06T05:39:15.683Z,135
2018-07-06T05:40:23.709Z,140
2018-07-06T05:41:31.797Z,135
2018-07-06T05:42:39.878Z,160
2018-07-06T05:43:47.947Z,170
2018-07-06T05:44:56.010Z,140
2018-07-06T05:46:04.051Z,120
2018-07-06T05:47:12.140Z,110
2018-07-06T05:48:20.198Z,135
2018-07-06T05:49:28.271Z,145
2018-07-06T05:50:36.351Z,150
2018-07-06T05:51:44.393Z,160
2018-07-06T05:52:52.461Z,170
2018-07-06T05:54:00.527Z,140
2018-07-06T05:55:08.594Z,150
2018-07-06T05:56:16.665Z,170
2018-07-06T05:57:24.736Z,160
2018-07-06T05:58:39.075Z,160
2018-07-06T05:59:40.868Z,145
2018-07-06T06:00:48.941Z,135
2018-07-06T06:01:57.007Z,140
2018-07-06T06:03:05.066Z,120
2018-07-06T06:04:13.150Z,105
2018-07-06T06:05:21.216Z,95
2018-07-06T06:06:29.284Z,80
2018-07-06T06:07:37.338Z,90
2018-07-06T06:08:45.413Z,90
2018-07-06T06:09:53.478Z,85
2018-07-06T06:11:01.551Z,80
2018-07-06T06:12:09.666Z,85
2018-07-06T06:13:17.698Z,85
2018-07-06T06:14:25.764Z,85
2018-07-06T06:15:33.797Z,80
2018-07-06T06:16:41.893Z,85
2018-07-06T06:17:49.961Z,80
2018-07-06T06:18:58.220Z,70
2018-07-06T06:20:06.091Z,70
2018-07-06T06:21:14.148Z,85
2018-07-06T06:22:22.246Z,95
2018-07-06T06:23:30.294Z,100
2018-07-06T06:24:38.364Z,105
2018-07-06T06:25:46.422Z,110
2018-07-06T06:26:54.489Z,105
2018-07-06T06:28:02.558Z,110
2018-07-06T06:29:10.639Z,115
2018-07-06T06:30:18.687Z,130
2018-07-06T06:31:26.777Z,135
2018-07-06T06:32:34.843Z,130
2018-07-06T06:33:43.033Z,125
2018-07-06T06:34:50.978Z,115
2018-07-06T06:35:59.045Z,115
2018-07-06T06:37:07.117Z,115
2018-07-06T06:38:15.177Z,125
2018-07-06T06:39:23.246Z,125
2018-07-06T06:40:31.355Z,135
2018-07-06T06:41:39.399Z,120
2018-07-06T06:42:47.488Z,115
2018-07-06T06:43:56.068Z,125
2018-07-06T06:45:03.562Z,135
2018-07-06T06:46:11.664Z,140
2018-07-06T06:47:19.726Z,135
2018-07-06T06:48:27.791Z,130
2018-07-06T06:49:35.860Z,130
2018-07-06T06:50:43.955Z,140
2018-07-06T06:51:52.007Z,150
2018-07-06T06:53:00.108Z,155
2018-07-06T06:54:08.142Z,175
2018-07-06T06:55:16.223Z,230
2018-07-06T06:56:24.256Z,260
2018-07-06T06:57:32.369Z,250
2018-07-06T06:58:40.419Z,235
2018-07-06T06:59:48.475Z,245
2018-07-06T07:00:56.563Z,230
2018-07-06T07:02:04.622Z,230
2018-07-06T07:03:12.687Z,230
2018-07-06T07:04:20.744Z,240
2018-07-06T07:05:28.832Z,245
2018-07-06T07:06:36.902Z,260
2018-07-06T07:07:45.022Z,270
2018-07-06T07:08:53.038Z,290
2018-07-06T07:10:01.100Z,285
2018-07-06T07:11:09.183Z,275
2018-07-06T07:12:17.250Z,305
2018-07-06T07:13:25.506Z,285
2018-07-06T07:14:33.561Z,255
2018-07-06T07:15:41.652Z,235
2018-07-06T07:17:08.980Z,225
2018-07-06T07:18:12.721Z,230
2018-07-06T07:19:08.055Z,240
2018-07-06T07:20:16.126Z,265
2018-07-06T07:21:24.195Z,270
2018-07-06T07:22:32.266Z,280
2018-07-06T07:23:40.351Z,300
2018-07-06T07:24:48.416Z,305
2018-07-06T07:25:56.523Z,300
2018-07-06T07:27:04.553Z,300
2018-07-06T07:28:12.600Z,285
2018-07-06T07:29:20.684Z,285
2018-07-06T07:30:28.754Z,290
2018-07-06T07:31:36.821Z,290
2018-07-06T07:32:44.907Z,265
2018-07-06T07:33:52.951Z,245
2018-07-06T07:35:14.835Z,225
2018-07-06T07:36:10.102Z,205
2018-07-06T07:37:18.178Z,180
2018-07-06T07:38:26.240Z,180
2018-07-06T07:39:34.303Z,215
2018-07-06T07:40:42.387Z,250
2018-07-06T07:41:50.451Z,275
2018-07-06T07:42:58.531Z,320
2018-07-06T07:44:06.606Z,325
2018-07-06T07:45:14.659Z,315
2018-07-06T07:46:22.765Z,300
2018-07-06T07:47:30.796Z,300
2018-07-06T07:48:38.870Z,325
2018-07-06T07:49:46.970Z,350
2018-07-06T07:50:54.997Z,370
2018-07-06T07:52:03.074Z,410
2018-07-06T07:53:11.146Z,450
2018-07-06T07:54:34.615Z,500
2018-07-06T07:55:29.898Z,540
2018-07-06T07:56:37.964Z,565
2018-07-06T07:57:46.029Z,585
2018-07-06T07:58:54.075Z,585
2018-07-06T08:00:02.178Z,550
2018-07-06T08:01:10.360Z,510
2018-07-06T08:02:18.330Z,485
2018-07-06T08:03:26.389Z,460
2018-07-06T08:04:34.454Z,440
2018-07-06T08:05:42.517Z,435
2018-07-06T08:06:50.591Z,430
2018-07-06T08:07:58.657Z,445
2018-07-06T08:09:06.734Z,440
2018-07-06T08:10:14.890Z,415
2018-07-06T08:11:22.870Z,365
2018-07-06T08:12:30.948Z,330
2018-07-06T08:13:39.018Z,300
2018-07-06T08:14:47.306Z,280
2018-07-06T08:15:55.357Z,270
2018-07-06T08:17:03.421Z,260
2018-07-06T08:18:11.500Z,250
2018-07-06T08:19:19.593Z,250
2018-07-06T08:20:27.634Z,245
2018-07-06T08:21:35.702Z,240
2018-07-06T08:22:43.756Z,235
2018-07-06T08:23:51.848Z,235
2018-07-06T08:24:59.954Z,235
2018-07-06T08:26:07.991Z,240
2018-07-06T08:27:16.055Z,245
2018-07-06T08:28:24.107Z,230
2018-07-06T08:29:32.203Z,230
2018-07-06T08:30:40.266Z,240
2018-07-06T08:31:48.326Z,275
2018-07-06T08:32:56.400Z,335
2018-07-06T08:34:04.464Z,375
2018-07-06T08:35:12.544Z,405
2018-07-06T08:36:20.663Z,430
2018-07-06T08:37:28.696Z,455
2018-07-06T08:38:36.754Z,475
2018-07-06T08:39:44.834Z,460
2018-07-06T08:40:52.893Z,445
2018-07-06T08:42:00.961Z,435
2018-07-06T08:43:09.040Z,485
2018-07-06T08:44:17.118Z,515
2018-07-06T08:45:25.172Z,540
2018-07-06T08:46:33.244Z,560
2018-07-06T08:47:41.323Z,590
2018-07-06T08:48:49.392Z,615
2018-07-06T08:49:57.454Z,650
2018-07-06T08:51:05.531Z,670
2018-07-06T08:52:13.569Z,705
2018-07-06T08:53:21.679Z,735
2018-07-06T08:54:29.741Z,775
2018-07-06T08:55:37.817Z,825
2018-07-06T08:56:45.874Z,870
2018-07-06T08:57:53.941Z,815
2018-07-06T08:59:02.030Z,810
2018-07-06T09:00:10.089Z,910
2018-07-06T09:01:18.171Z,670
2018-07-06T09:02:26.253Z,525
2018-07-06T09:03:34.292Z,430
2018-07-06T09:04:42.424Z,245
2018-07-06T09:05:50.472Z,245
2018-07-06T09:06:58.537Z,270
2018-07-06T09:08:06.588Z,270
2018-07-06T09:09:14.719Z,300
2018-07-06T09:10:22.736Z,275
2018-07-06T09:11:30.815Z,250
2018-07-06T09:12:38.888Z,220
2018-07-06T09:13:46.961Z,180
2018-07-06T09:14:55.013Z,160
2018-07-06T09:16:03.093Z,160
2018-07-06T09:17:11.160Z,175
2018-07-06T09:18:19.246Z,205
2018-07-06T09:19:27.408Z,260
2018-07-06T09:20:35.383Z,340
2018-07-06T09:21:43.521Z,455
2018-07-06T09:22:51.522Z,540
2018-07-06T09:23:59.605Z,540
2018-07-06T09:25:07.712Z,495
2018-07-06T09:26:15.760Z,490
2018-07-06T09:27:23.773Z,465
2018-07-06T09:28:31.873Z,435
2018-07-06T09:29:39.941Z,415
2018-07-06T09:30:48.030Z,400
2018-07-06T09:31:56.380Z,335
2018-07-06T09:33:04.120Z,245
2018-07-06T09:34:12.233Z,180
2018-07-06T09:35:20.308Z,175
2018-07-06T09:36:28.372Z,230
2018-07-06T09:37:36.434Z,310
2018-07-06T09:38:44.501Z,390
2018-07-06T09:39:52.560Z,455
2018-07-06T09:41:00.662Z,430
2018-07-06T09:42:08.726Z,445
2018-07-06T09:43:16.839Z,600
2018-07-06T09:44:24.849Z,755
2018-07-06T09:45:32.942Z,855
2018-07-06T09:46:41.000Z,840
2018-07-06T09:47:49.077Z,760
2018-07-06T09:48:57.150Z,655
2018-07-06T09:50:05.228Z,565
2018-07-06T09:51:13.538Z,460
2018-07-06T09:52:21.623Z,375
2018-07-06T09:53:29.419Z,350
2018-07-06T09:54:37.489Z,315
2018-07-06T09:55:45.609Z,365
2018-07-06T09:56:53.615Z,430
2018-07-06T09:58:01.747Z,465
2018-07-06T09:59:09.784Z,520
2018-07-06T10:00:17.855Z,525
2018-07-06T10:01:25.937Z,545
2018-07-06T10:02:33.970Z,590
2018-07-06T10:03:42.062Z,620
2018-07-06T10:04:50.131Z,620
2018-07-06T10:05:58.222Z,615
2018-07-06T10:07:06.286Z,620
2018-07-06T10:08:14.341Z,610
2018-07-06T10:09:22.422Z,580
2018-07-06T10:10:30.508Z,550
2018-07-06T10:11:38.557Z,520
2018-07-06T10:12:46.636Z,495
2018-07-06T10:13:54.721Z,465
2018-07-06T10:15:02.782Z,460
2018-07-06T10:16:10.906Z,475
2018-07-06T10:17:18.915Z,475
2018-07-06T10:18:26.994Z,470
2018-07-06T10:19:35.171Z,475
2018-07-06T10:20:43.135Z,495
2018-07-06T10:21:51.251Z,505
2018-07-06T10:22:59.269Z,520
2018-07-06T10:24:07.359Z,525
2018-07-06T10:25:15.417Z,540
2018-07-06T10:26:23.486Z,555
2018-07-06T10:27:31.561Z,585
2018-07-06T10:28:39.640Z,615
2018-07-06T10:29:47.735Z,640
2018-07-06T10:30:55.769Z,660
2018-07-06T10:32:03.825Z,665
2018-07-06T10:33:12.035Z,675
2018-07-06T10:34:19.988Z,690
2018-07-06T10:35:28.071Z,705
2018-07-06T10:36:36.143Z,735
2018-07-06T10:37:44.188Z,770
2018-07-06T10:38:52.277Z,830
2018-07-06T10:40:00.456Z,865
2018-07-06T10:41:09.848Z,895
2018-07-06T10:42:16.498Z,890
2018-07-06T10:43:39.538Z,870
2018-07-06T10:44:34.214Z,815
2018-07-06T10:45:42.314Z,790
2018-07-06T10:46:50.382Z,785
2018-07-06T10:47:58.453Z,755
2018-07-06T10:49:06.518Z,680
2018-07-06T10:50:14.596Z,605
2018-07-06T10:51:22.662Z,535
2018-07-06T10:52:30.754Z,470
2018-07-06T10:53:38.810Z,395
2018-07-06T10:54:46.888Z,345
2018-07-06T10:55:54.960Z,335
2018-07-06T10:57:03.025Z,360
2018-07-06T10:58:11.104Z,395
2018-07-06T10:59:19.211Z,390
2018-07-06T11:00:27.243Z,350
2018-07-06T11:01:35.309Z,300
2018-07-06T11:02:43.385Z,245
2018-07-06T11:03:51.447Z,220
2018-07-06T11:04:59.820Z,225
2018-07-06T11:06:07.607Z,240
2018-07-06T11:07:15.684Z,265
2018-07-06T11:08:23.721Z,290
2018-07-06T11:09:31.826Z,310
2018-07-06T11:10:39.891Z,345
2018-07-06T11:11:47.950Z,375
2018-07-06T11:12:56.027Z,390
2018-07-06T11:14:04.074Z,400
2018-07-06T11:15:12.180Z,405
2018-07-06T11:16:20.246Z,410
2018-07-06T11:17:28.314Z,415
2018-07-06T11:18:36.407Z,420
2018-07-06T11:19:44.450Z,425
2018-07-06T11:20:52.523Z,420
2018-07-06T11:22:00.596Z,410
2018-07-06T11:23:08.681Z,385
2018-07-06T11:24:16.751Z,365
2018-07-06T11:25:24.865Z,350
2018-07-06T11:26:33.154Z,340
2018-07-06T11:27:40.963Z,330
2018-07-06T11:28:49.040Z,320
2018-07-06T11:29:57.119Z,305
2018-07-06T11:31:05.178Z,285
2018-07-06T11:32:13.304Z,270
2018-07-06T11:33:21.328Z,285
2018-07-06T11:34:29.392Z,335
2018-07-06T11:35:37.460Z,395
2018-07-06T11:36:45.568Z,425
2018-07-06T11:37:53.846Z,440
2018-07-06T11:39:01.671Z,455
2018-07-06T11:40:09.741Z,465
2018-07-06T11:41:17.812Z,470
2018-07-06T11:42:25.895Z,475
2018-07-06T11:43:33.934Z,475
2018-07-06T11:44:42.024Z,475
2018-07-06T11:45:50.111Z,480
2018-07-06T11:46:58.165Z,480
2018-07-06T11:48:06.246Z,490
2018-07-06T11:49:14.298Z,495
2018-07-06T11:50:22.452Z,500
2018-07-06T11:51:30.462Z,510
2018-07-06T11:52:38.527Z,505
2018-07-06T11:53:46.632Z,500
2018-07-06T11:54:54.690Z,495
2018-07-06T11:56:02.760Z,495
2018-07-06T11:57:10.804Z,505
2018-07-06T11:58:18.930Z,520
2018-07-06T11:59:26.954Z,525
2018-07-06T12:00:35.029Z,535
2018-07-06T12:01:43.131Z,540
2018-07-06T12:02:51.163Z,550
2018-07-06T12:03:59.331Z,565
2018-07-06T12:05:11.601Z,565
2018-07-06T12:06:15.388Z,560
2018-07-06T12:07:23.446Z,565
2018-07-06T12:08:31.539Z,575
2018-07-06T12:09:39.609Z,590
2018-07-06T12:10:47.670Z,620
2018-07-06T12:11:55.754Z,655
2018-07-06T12:13:03.790Z,665
2018-07-06T12:14:11.918Z,680
2018-07-06T12:15:19.976Z,700
2018-07-06T12:16:28.045Z,730
2018-07-06T12:17:36.109Z,745
2018-07-06T12:18:49.838Z,750
2018-07-06T12:19:54.854Z,730
2018-07-06T12:21:03.012Z,670
2018-07-06T12:22:11.008Z,605
2018-07-06T12:23:19.081Z,540
2018-07-06T12:24:27.161Z,505
2018-07-06T12:25:35.233Z,500
2018-07-06T12:26:43.299Z,495
2018-07-06T12:27:51.442Z,510
2018-07-06T12:28:59.448Z,520
2018-07-06T12:30:07.508Z,525
2018-07-06T12:31:15.580Z,540
2018-07-06T12:32:23.640Z,570
2018-07-06T12:33:31.740Z,595
2018-07-06T12:34:39.802Z,625
2018-07-06T12:35:47.929Z,685
2018-07-06T12:36:55.953Z,760
2018-07-06T12:38:03.992Z,785
2018-07-06T12:39:12.110Z,805
2018-07-06T12:40:20.166Z,885
2018-07-06T12:41:28.242Z,1005
2018-07-06T12:42:36.317Z,1050
2018-07-06T12:43:44.363Z,1025
2018-07-06T12:44:52.464Z,995
2018-07-06T12:46:00.581Z,1005
2018-07-06T12:47:10.033Z,925
2018-07-06T12:48:18.087Z,875
2018-07-06T12:49:26.161Z,865
2018-07-06T12:50:34.220Z,840
2018-07-06T12:51:42.371Z,795
2018-07-06T12:52:50.374Z,750
2018-07-06T12:53:58.465Z,690
2018-07-06T12:55:06.537Z,645
2018-07-06T12:56:14.590Z,535
2018-07-06T12:57:22.682Z,475
2018-07-06T12:58:30.841Z,490
2018-07-06T12:59:38.828Z,490
2018-07-06T13:00:46.886Z,420
2018-07-06T13:01:54.980Z,425
2018-07-06T13:03:03.090Z,465
2018-07-06T13:04:11.120Z,570
2018-07-06T13:05:19.192Z,635
2018-07-06T13:06:27.271Z,725
2018-07-06T13:07:35.343Z,725
2018-07-06T13:08:43.403Z,700
2018-07-06T13:09:51.496Z,650
2018-07-06T13:10:59.562Z,665
2018-07-06T13:12:07.642Z,725
2018-07-06T13:13:15.712Z,700
2018-07-06T13:14:23.752Z,675
2018-07-06T13:15:31.856Z,635
2018-07-06T13:16:39.946Z,600
2018-07-06T13:17:48.013Z,585
2018-07-06T13:18:56.082Z,640
2018-07-06T13:20:04.132Z,690
2018-07-06T13:21:12.247Z,635
2018-07-06T13:22:20.324Z,610
2018-07-06T13:23:28.383Z,615
2018-07-06T13:24:36.455Z,660
2018-07-06T13:25:44.570Z,690
2018-07-06T13:26:52.618Z,720
2018-07-06T13:28:00.685Z,765
2018-07-06T13:29:08.755Z,825
2018-07-06T13:30:16.833Z,815
2018-07-06T13:31:24.912Z,760
2018-07-06T13:32:32.980Z,675
2018-07-06T13:33:41.148Z,605
2018-07-06T13:34:49.146Z,570
2018-07-06T13:35:57.218Z,600
2018-07-06T13:37:05.284Z,605
2018-07-06T13:38:13.351Z,590
2018-07-06T13:39:21.445Z,580
2018-07-06T13:40:29.513Z,620
2018-07-06T13:41:37.614Z,620
2018-07-06T13:42:45.674Z,590
2018-07-06T13:43:53.704Z,600
2018-07-06T13:45:01.808Z,635
2018-07-06T13:46:09.885Z,665
2018-07-06T13:47:17.952Z,665
2018-07-06T13:48:29.661Z,645
2018-07-06T13:49:40.969Z,635
2018-07-06T13:50:50.228Z,610
2018-07-06T13:53:06.436Z,565
2018-07-06T13:54:14.452Z,540
2018-07-06T13:55:22.528Z,480
2018-07-06T13:56:30.612Z,415
2018-07-06T13:57:38.675Z,310
2018-07-06T13:58:46.751Z,245
2018-07-06T13:59:54.822Z,200
2018-07-06T14:01:02.908Z,175
2018-07-06T14:02:10.967Z,160
2018-07-06T14:03:19.045Z,145
2018-07-06T14:04:27.118Z,140
2018-07-06T14:05:35.206Z,140
2018-07-06T14:06:43.248Z,130
2018-07-06T14:07:51.345Z,125
2018-07-06T14:08:59.457Z,115
2018-07-06T14:10:07.491Z,120
2018-07-06T14:11:15.560Z,125
2018-07-06T14:12:23.602Z,125
2018-07-06T14:13:31.699Z,125
2018-07-06T14:14:39.779Z,135
2018-07-06T14:15:47.852Z,145
2018-07-06T14:16:55.917Z,125
2018-07-06T14:18:03.967Z,110
2018-07-06T14:19:12.060Z,105
2018-07-06T14:20:20.141Z,100
2018-07-06T14:21:28.201Z,100
2018-07-06T14:22:36.319Z,105
2018-07-06T14:23:44.337Z,105
2018-07-06T14:24:52.427Z,120
2018-07-06T14:26:00.488Z,150
2018-07-06T14:27:08.558Z,200
2018-07-06T14:28:16.637Z,260
2018-07-06T14:29:24.706Z,315
2018-07-06T14:30:32.756Z,395
2018-07-06T14:31:40.844Z,495
2018-07-06T14:32:48.921Z,610
2018-07-06T14:33:57.005Z,670
2018-07-06T14:35:05.063Z,690
2018-07-06T14:36:13.121Z,695
2018-07-06T14:37:21.209Z,695
2018-07-06T14:38:33.564Z,720
2018-07-06T14:39:37.346Z,655
2018-07-06T14:40:45.415Z,580
2018-07-06T14:41:53.494Z,525
2018-07-06T14:43:01.561Z,655
2018-07-06T14:44:09.641Z,655
2018-07-06T14:45:17.708Z,675
2018-07-06T14:46:25.790Z,665
2018-07-06T14:47:33.824Z,670
2018-07-06T14:48:41.913Z,705
2018-07-06T14:49:49.990Z,705
2018-07-06T14:50:58.077Z,705
2018-07-06T14:52:06.134Z,720
2018-07-06T14:53:14.208Z,730
2018-07-06T14:54:22.300Z,745
2018-07-06T14:55:30.376Z,760
2018-07-06T14:56:38.442Z,700
2018-07-06T14:57:46.523Z,705
2018-07-06T14:58:54.580Z,700
2018-07-06T15:00:06.890Z,735
2018-07-06T15:01:19.609Z,755
2018-07-06T15:02:27.669Z,775
2018-07-06T15:03:39.772Z,750
2018-07-06T15:05:57.344Z,640
2018-07-06T15:07:07.633Z,675
2018-07-06T15:08:15.696Z,640
2018-07-06T15:09:23.745Z,670
2018-07-06T15:10:38.784Z,570
2018-07-06T15:11:45.772Z,555
2018-07-06T15:12:53.870Z,550
2018-07-06T15:14:01.924Z,550
2018-07-06T15:15:09.984Z,555
2018-07-06T15:16:18.060Z,535
2018-07-06T15:17:26.123Z,520
2018-07-06T15:18:34.201Z,470
2018-07-06T15:19:42.277Z,375
2018-07-06T15:20:50.472Z,310
2018-07-06T15:21:58.415Z,245
2018-07-06T15:23:06.507Z,200
2018-07-06T15:24:14.568Z,170
2018-07-06T15:25:22.647Z,140
2018-07-06T15:26:30.729Z,130
2018-07-06T15:27:38.798Z,110
2018-07-06T15:28:46.863Z,105
2018-07-06T15:29:54.930Z,100
2018-07-06T15:31:03.001Z,100
2018-07-06T15:32:11.080Z,95
2018-07-06T15:33:19.147Z,100
2018-07-06T15:34:27.228Z,90
2018-07-06T15:35:35.281Z,75
2018-07-06T15:36:43.356Z,60
2018-07-06T15:37:51.433Z,50
2018-07-06T15:38:59.499Z,45
2018-07-06T15:40:07.582Z,40
2018-07-06T15:41:15.638Z,35
2018-07-06T15:42:23.695Z,30
2018-07-06T15:43:31.801Z,30
2018-07-06T15:44:39.857Z,30
2018-07-06T15:45:47.942Z,30
2018-07-06T15:46:55.999Z,35
2018-07-06T15:48:04.034Z,35
2018-07-06T15:49:12.138Z,40
2018-07-06T15:50:20.215Z,45
2018-07-06T15:51:28.292Z,45
2018-07-06T15:52:36.347Z,45
2018-07-06T15:53:45.038Z,45
2018-07-06T15:54:54.291Z,40
2018-07-06T15:56:02.359Z,35
2018-07-06T15:57:17.934Z,30
2018-07-06T15:58:25.964Z,25
2018-07-06T15:59:34.005Z,25
2018-07-06T16:00:43.546Z,25
2018-07-06T16:01:50.192Z,25